Time;durP1;ratioP1;P1;durP2;ratioP2;P2;SDS_P1;SDS_P2;PMS_P1;PMS_P2;Temp;Humidity;BMP_temperature;BMP_pressure;BME280_temperature;BME280_humidity;BME280_pressure;Samples;Min_cycle;Max_cycle;Signal;HPM_P1;HPM_P2
2023/12/11 00:01:37;;;;;;;13.25;3.08;;;;;;;10.40;91.35;99636.91;5031916;28;20021;-67
2023/12/11 00:04:03;;;;;;;16.73;3.70;;;;;;;10.25;91.79;99652.78;5063589;28;20026;-66
2023/12/11 00:06:29;;;;;;;14.82;3.72;;;;;;;10.10;92.22;99658.34;5031043;28;20029;-67
2023/12/11 00:08:54;;;;;;;16.90;2.95;;;;;;;10.01;93.50;99651.66;5034249;28;20049;-67
2023/12/11 00:11:20;;;;;;;16.05;4.03;;;;;;;9.93;93.96;99651.00;5030598;28;20660;-66
2023/12/11 00:13:45;;;;;;;14.20;2.78;;;;;;;9.97;93.52;99637.13;5030618;28;20041;-67
2023/12/11 00:16:11;;;;;;;13.15;2.80;;;;;;;10.13;91.99;99635.88;5030862;28;20018;-67
2023/12/11 00:18:36;;;;;;;16.20;3.40;;;;;;;10.14;92.07;99629.84;5024191;28;20187;-67
2023/12/11 00:21:02;;;;;;;13.70;3.00;;;;;;;10.32;91.55;99615.63;5028765;28;20533;-67
2023/12/11 00:23:28;;;;;;;16.33;3.08;;;;;;;10.39;90.60;99616.28;5029763;28;20050;-67
2023/12/11 00:25:54;;;;;;;17.85;3.55;;;;;;;10.57;89.55;99613.22;5029846;28;20484;-67
2023/12/11 00:28:19;;;;;;;19.48;2.78;;;;;;;10.56;89.90;99622.72;5030116;28;20057;-68
2023/12/11 00:30:45;;;;;;;19.83;3.78;;;;;;;10.61;89.67;99614.84;5031325;28;20021;-67
2023/12/11 00:33:10;;;;;;;14.65;3.10;;;;;;;10.71;87.96;99604.19;5032228;28;20048;-67
2023/12/11 00:35:36;;;;;;;15.32;2.20;;;;;;;10.71;88.86;99611.13;5007888;28;20030;-68
2023/12/11 00:38:02;;;;;;;15.15;3.30;;;;;;;10.69;89.06;99612.88;5024823;28;20552;-67
2023/12/11 00:40:27;;;;;;;16.73;3.45;;;;;;;10.69;88.47;99618.06;5046040;28;20681;-68
2023/12/11 00:42:53;;;;;;;15.85;3.50;;;;;;;10.69;88.27;99623.22;5028017;28;20091;-68
2023/12/11 00:45:18;;;;;;;11.30;2.92;;;;;;;10.66;89.19;99634.50;5021786;28;20138;-68
2023/12/11 00:47:44;;;;;;;13.65;2.53;;;;;;;10.61;89.52;99626.03;5011770;28;20041;-67
2023/12/11 00:50:09;;;;;;;12.40;2.72;;;;;;;10.59;90.20;99642.47;5027977;28;20553;-67
2023/12/11 00:52:35;;;;;;;13.88;3.17;;;;;;;10.62;90.35;99639.81;5032155;28;20500;-67
2023/12/11 00:55:01;;;;;;;18.92;3.42;;;;;;;10.63;90.12;99644.91;5028653;28;20042;-67
2023/12/11 00:57:26;;;;;;;10.48;2.38;;;;;;;10.69;90.15;99643.91;5040292;28;20026;-67
2023/12/11 00:59:52;;;;;;;15.05;2.78;;;;;;;10.69;90.19;99638.72;5030579;28;20041;-67
2023/12/11 01:02:18;;;;;;;13.35;3.05;;;;;;;10.59;91.14;99648.50;5054705;28;20038;-67
2023/12/11 01:04:44;;;;;;;9.15;2.28;;;;;;;10.60;91.89;99641.56;5024540;28;21600;-67
2023/12/11 01:07:10;;;;;;;16.50;2.65;;;;;;;10.57;91.40;99639.06;5030375;28;20558;-67
2023/12/11 01:09:36;;;;;;;16.55;2.83;;;;;;;10.45;92.87;99654.88;5025908;28;20390;-67
2023/12/11 01:12:01;;;;;;;10.35;2.15;;;;;;;10.41;92.85;99650.69;5026571;28;20048;-67
2023/12/11 01:14:27;;;;;;;12.30;2.15;;;;;;;10.43;93.14;99661.81;5062750;28;20459;-67
2023/12/11 01:16:53;;;;;;;18.00;3.58;;;;;;;10.40;93.42;99654.16;5027242;28;20387;-67
2023/12/11 01:19:18;;;;;;;15.48;2.85;;;;;;;10.41;93.68;99655.84;5026964;28;20116;-67
2023/12/11 01:21:45;;;;;;;22.63;4.05;;;;;;;10.41;94.09;99653.28;5027895;28;20030;-67
2023/12/11 01:24:11;;;;;;;14.70;2.65;;;;;;;10.47;93.15;99648.81;5063897;28;20072;-67
2023/12/11 01:26:38;;;;;;;8.73;2.13;;;;;;;10.46;93.10;99657.44;5025489;28;20088;-67
2023/12/11 01:29:04;;;;;;;10.15;3.25;;;;;;;10.48;93.23;99642.72;5028641;28;20103;-67
2023/12/11 01:31:29;;;;;;;13.07;3.15;;;;;;;10.50;93.84;99640.97;5032673;28;20049;-66
2023/12/11 01:33:55;;;;;;;13.18;3.22;;;;;;;10.61;92.73;99622.59;5044488;28;20060;-67
2023/12/11 01:36:20;;;;;;;20.20;3.20;;;;;;;10.63;91.78;99625.97;5027453;28;20191;-66
2023/12/11 01:38:47;;;;;;;12.35;2.85;;;;;;;10.69;91.57;99618.91;5023815;28;20057;-67
2023/12/11 01:41:13;;;;;;;16.60;3.40;;;;;;;10.66;91.48;99631.91;5029518;28;20091;-67
2023/12/11 01:43:38;;;;;;;17.13;3.35;;;;;;;10.66;91.44;99636.22;5027471;28;20057;-66
2023/12/11 01:46:11;;;;;;;12.98;2.95;;;;;;;10.67;90.56;99632.75;5026966;28;20026;-67
2023/12/11 01:48:37;;;;;;;16.15;3.35;;;;;;;10.56;91.28;99639.97;5027919;28;20038;-67
2023/12/11 01:51:05;;;;;;;18.95;3.20;;;;;;;10.47;92.25;99641.06;5060379;28;20080;-67
2023/12/11 01:53:32;;;;;;;12.65;2.83;;;;;;;10.47;91.94;99647.94;5061191;28;20120;-67
2023/12/11 01:55:58;;;;;;;23.75;3.42;;;;;;;10.44;92.03;99656.63;5024380;28;20091;-67
2023/12/11 01:58:24;;;;;;;21.85;3.92;;;;;;;10.43;91.72;99654.91;5026542;28;20093;-67
2023/12/11 02:00:50;;;;;;;22.65;3.38;;;;;;;10.40;92.55;99648.97;5027997;28;20140;-67
2023/12/11 02:03:16;;;;;;;14.38;2.88;;;;;;;10.44;92.42;99648.03;5020367;28;20068;-67
2023/12/11 02:05:45;;;;;;;13.25;3.05;;;;;;;10.42;92.31;99654.94;5026593;28;20041;-67
2023/12/11 02:08:11;;;;;;;15.70;3.45;;;;;;;10.34;92.27;99662.06;5025285;28;20038;-67
2023/12/11 02:10:36;;;;;;;13.32;2.85;;;;;;;10.34;92.14;99667.22;5025723;28;20021;-67
2023/12/11 02:13:03;;;;;;;15.80;2.75;;;;;;;10.36;92.16;99653.38;5025109;28;20030;-67
2023/12/11 02:15:41;;;;;;;17.17;3.03;;;;;;;10.36;92.09;99655.09;5060500;28;20180;-67
2023/12/11 02:18:08;;;;;;;18.80;3.08;;;;;;;10.32;92.65;99649.19;5023873;28;20079;-67
2023/12/11 02:20:34;;;;;;;16.95;3.15;;;;;;;10.24;92.14;99651.09;5024768;28;20029;-67
2023/12/11 02:23:04;;;;;;;14.93;3.65;;;;;;;10.29;92.78;99657.00;5057138;28;20091;-66
2023/12/11 02:25:34;;;;;;;18.30;2.85;;;;;;;10.35;92.26;99648.25;5054933;28;20037;-67
2023/12/11 02:27:59;;;;;;;18.25;3.33;;;;;;;10.32;92.95;99643.16;5022548;28;20038;-67
2023/12/11 02:30:25;;;;;;;18.27;3.70;;;;;;;10.27;93.53;99642.44;5059378;28;20053;-67
2023/12/11 02:32:51;;;;;;;13.95;2.97;;;;;;;10.36;92.65;99631.84;5029338;28;20143;-67
2023/12/11 02:35:17;;;;;;;21.52;3.95;;;;;;;10.45;92.25;99629.03;5021035;28;20056;-67
2023/12/11 02:37:43;;;;;;;14.90;3.38;;;;;;;10.45;91.55;99619.56;5019225;28;20116;-67
2023/12/11 02:40:08;;;;;;;12.27;2.42;;;;;;;10.40;92.12;99631.75;5022747;28;20091;-66
2023/12/11 02:42:34;;;;;;;18.15;3.10;;;;;;;10.48;90.87;99616.88;5054913;28;20429;-67
2023/12/11 02:44:59;;;;;;;18.02;3.50;;;;;;;10.56;90.52;99609.81;5021745;28;20041;-67
2023/12/11 02:47:25;;;;;;;12.90;2.90;;;;;;;10.63;89.78;99607.88;5004707;28;20392;-67
2023/12/11 02:49:50;;;;;;;16.25;3.25;;;;;;;10.73;88.91;99591.25;5048651;28;20041;-67
2023/12/11 02:52:16;;;;;;;12.85;2.85;;;;;;;10.79;88.25;99573.00;5022025;28;20076;-67
2023/12/11 02:54:41;;;;;;;14.40;3.00;;;;;;;10.78;88.29;99582.47;5057988;28;20049;-67
2023/12/11 02:57:07;;;;;;;15.93;3.05;;;;;;;10.78;88.42;99584.19;5025220;28;20583;-67
2023/12/11 02:59:32;;;;;;;13.80;3.55;;;;;;;10.76;88.35;99581.69;5025219;28;20488;-67
2023/12/11 03:01:58;;;;;;;19.38;3.05;;;;;;;10.72;88.59;99585.22;5023008;28;20678;-66
2023/12/11 03:04:23;;;;;;;18.27;3.42;;;;;;;10.74;88.06;99562.75;5023899;28;20025;-67
2023/12/11 03:06:51;;;;;;;21.40;3.75;;;;;;;10.73;87.57;99568.84;5025077;28;20061;-67
2023/12/11 03:09:16;;;;;;;18.23;3.53;;;;;;;10.76;87.56;99555.84;5044964;28;20029;-67
2023/12/11 03:11:42;;;;;;;21.58;3.50;;;;;;;10.83;86.44;99546.19;5061979;28;20044;-67
2023/12/11 03:14:07;;;;;;;19.40;3.35;;;;;;;10.86;86.23;99538.28;5028112;28;20037;-66
2023/12/11 03:16:33;;;;;;;16.17;2.75;;;;;;;10.85;86.21;99539.22;5045944;28;20517;-68
2023/12/11 03:18:58;;;;;;;20.15;3.13;;;;;;;10.84;86.14;99531.47;5059201;28;20072;-66
2023/12/11 03:21:24;;;;;;;14.63;3.75;;;;;;;10.82;85.34;99518.63;5056013;28;20041;-67
2023/12/11 03:23:49;;;;;;;13.70;3.20;;;;;;;10.75;86.39;99523.13;5053723;28;20519;-67
2023/12/11 03:26:15;;;;;;;13.13;2.90;;;;;;;10.77;85.47;99510.97;5056245;28;20038;-67
2023/12/11 03:28:40;;;;;;;17.45;3.20;;;;;;;10.68;85.47;99523.34;5025060;28;20029;-66
2023/12/11 03:31:06;;;;;;;14.50;3.47;;;;;;;10.54;86.27;99520.28;5059256;28;20116;-67
2023/12/11 03:33:31;;;;;;;11.95;2.83;;;;;;;10.45;86.24;99520.53;5036571;28;20547;-66
2023/12/11 03:35:57;;;;;;;19.25;3.00;;;;;;;10.42;87.18;99524.06;5022233;28;20072;-66
2023/12/11 03:38:22;;;;;;;18.00;2.90;;;;;;;10.47;86.62;99527.38;5059634;28;20037;-67
2023/12/11 03:40:48;;;;;;;18.67;3.25;;;;;;;10.51;85.68;99513.47;5012715;28;20029;-67
2023/12/11 03:43:13;;;;;;;16.08;2.90;;;;;;;10.61;84.92;99506.31;5019134;28;20443;-67
2023/12/11 03:45:39;;;;;;;15.35;2.65;;;;;;;10.66;84.43;99484.63;5020430;28;20709;-66
2023/12/11 03:48:04;;;;;;;14.55;2.80;;;;;;;10.63;85.19;99499.34;5022395;28;20489;-67
2023/12/11 03:50:30;;;;;;;14.65;2.63;;;;;;;10.62;84.55;99498.50;5050735;28;20454;-67
2023/12/11 03:52:55;;;;;;;16.98;3.50;;;;;;;10.64;84.29;99488.13;5024973;28;20064;-67
2023/12/11 03:55:21;;;;;;;18.10;3.15;;;;;;;10.61;84.37;99504.59;5056337;28;20041;-67
2023/12/11 03:57:47;;;;;;;16.58;3.00;;;;;;;10.52;84.85;99502.25;5023846;28;20136;-67
2023/12/11 04:00:13;;;;;;;17.17;3.17;;;;;;;10.40;85.44;99512.06;5024706;28;20053;-67
2023/12/11 04:02:38;;;;;;;12.18;2.50;;;;;;;10.44;84.91;99495.63;5026608;28;20076;-67
2023/12/11 04:05:04;;;;;;;13.65;2.95;;;;;;;10.43;85.78;99509.41;5024246;28;20037;-67
2023/12/11 04:07:30;;;;;;;12.20;2.95;;;;;;;10.44;85.08;99496.47;5054838;28;20030;-67
2023/12/11 04:09:56;;;;;;;14.77;3.30;;;;;;;10.48;85.55;99498.06;5020619;28;20508;-67
2023/12/11 04:12:22;;;;;;;15.80;2.80;;;;;;;10.59;84.74;99490.88;5022132;28;20060;-67
2023/12/11 04:14:48;;;;;;;16.88;3.08;;;;;;;10.54;84.95;99495.31;5035883;28;20049;-67
2023/12/11 04:17:14;;;;;;;19.80;3.28;;;;;;;10.57;85.51;99499.53;5025455;28;20176;-67
2023/12/11 04:19:40;;;;;;;12.05;3.08;;;;;;;10.56;85.61;99493.53;5023416;28;20033;-67
2023/12/11 04:22:06;;;;;;;10.05;2.30;;;;;;;10.57;85.10;99486.59;5022498;28;20314;-67
2023/12/11 04:24:31;;;;;;;14.68;3.05;;;;;;;10.51;85.34;99469.56;5055476;28;20587;-67
2023/12/11 04:26:57;;;;;;;13.23;3.00;;;;;;;10.48;85.64;99485.13;5018496;28;20038;-67
2023/12/11 04:29:23;;;;;;;17.88;3.58;;;;;;;10.51;85.51;99476.44;5061224;28;20103;-67
2023/12/11 04:31:48;;;;;;;15.82;2.80;;;;;;;10.54;85.35;99450.53;5057789;28;20048;-67
2023/12/11 04:34:14;;;;;;;14.40;3.15;;;;;;;10.53;84.79;99449.72;5062715;28;20717;-67
2023/12/11 04:36:43;;;;;;;13.70;3.33;;;;;;;10.63;84.50;99442.50;5030413;28;20132;-67
2023/12/11 04:39:09;;;;;;;15.02;3.42;;;;;;;10.55;84.45;99453.09;5030970;28;20037;-67
2023/12/11 04:41:34;;;;;;;16.40;2.83;;;;;;;10.56;84.86;99443.59;5030862;28;20056;-67
2023/12/11 04:44:00;;;;;;;13.07;2.65;;;;;;;10.61;84.42;99446.88;5033640;28;20041;-67
2023/12/11 04:46:25;;;;;;;15.05;2.47;;;;;;;10.70;83.22;99423.34;5041365;28;20041;-67
2023/12/11 04:48:51;;;;;;;21.00;2.92;;;;;;;10.76;82.98;99415.41;5024699;28;20049;-66
2023/12/11 04:51:16;;;;;;;15.18;3.35;;;;;;;10.74;83.18;99422.38;5060959;28;20512;-67
2023/12/11 04:53:42;;;;;;;16.92;2.97;;;;;;;10.75;83.58;99427.50;5041145;28;20404;-67
2023/12/11 04:56:08;;;;;;;15.77;3.15;;;;;;;10.86;83.26;99419.38;5043034;28;20539;-67
2023/12/11 04:58:33;;;;;;;13.32;2.53;;;;;;;10.88;82.96;99422.78;5022059;28;20030;-67
2023/12/11 05:00:59;;;;;;;11.90;2.78;;;;;;;10.89;82.44;99418.47;5028294;28;20053;-67
2023/12/11 05:03:24;;;;;;;13.35;2.80;;;;;;;10.92;82.39;99408.84;5026233;28;20476;-67
2023/12/11 05:05:50;;;;;;;16.13;3.15;;;;;;;10.97;82.40;99412.16;5043736;28;20049;-66
2023/12/11 05:08:15;;;;;;;19.15;3.88;;;;;;;11.01;82.12;99400.81;5024011;28;20490;-67
2023/12/11 05:10:41;;;;;;;11.35;2.28;;;;;;;11.01;81.92;99402.59;5040835;28;20396;-67
2023/12/11 05:13:07;;;;;;;13.43;3.10;;;;;;;11.05;81.67;99399.84;5000689;28;20115;-67
2023/12/11 05:15:33;;;;;;;15.80;2.80;;;;;;;11.02;82.24;99404.25;5027908;28;20052;-67
2023/12/11 05:17:58;;;;;;;11.55;3.00;;;;;;;11.00;82.45;99396.56;5026203;28;20045;-67
2023/12/11 05:20:24;;;;;;;10.25;2.65;;;;;;;10.89;81.92;99395.22;5023657;28;20046;-67
2023/12/11 05:22:50;;;;;;;8.40;2.58;;;;;;;10.80;82.64;99399.75;5022593;28;20049;-67
2023/12/11 05:25:15;;;;;;;14.43;2.78;;;;;;;10.76;82.86;99399.91;5042896;28;20025;-67
2023/12/11 05:27:41;;;;;;;11.95;2.97;;;;;;;10.85;82.53;99406.53;5021850;28;20112;-67
2023/12/11 05:30:07;;;;;;;14.20;3.90;;;;;;;10.86;82.07;99395.31;5025395;28;20045;-67
2023/12/11 05:32:33;;;;;;;11.27;2.72;;;;;;;10.93;81.09;99389.03;5025679;28;20037;-67
2023/12/11 05:34:58;;;;;;;12.23;2.70;;;;;;;10.97;81.44;99386.31;5027136;28;20501;-67
2023/12/11 05:37:24;;;;;;;16.70;3.70;;;;;;;11.01;80.72;99374.97;5025878;28;20069;-67
2023/12/11 05:39:49;;;;;;;14.27;2.17;;;;;;;11.04;80.15;99372.28;5020031;28;20037;-67
2023/12/11 05:42:15;;;;;;;11.52;2.70;;;;;;;11.00;81.21;99381.06;5024618;28;20131;-68
2023/12/11 05:44:41;;;;;;;12.38;2.60;;;;;;;11.06;79.94;99373.09;5026073;28;20044;-67
2023/12/11 05:47:06;;;;;;;10.00;2.33;;;;;;;11.15;79.17;99366.78;5026387;28;20030;-67
2023/12/11 05:49:32;;;;;;;10.52;2.53;;;;;;;11.12;80.33;99382.38;5024236;28;20029;-67
2023/12/11 05:51:58;;;;;;;13.50;2.47;;;;;;;11.18;79.83;99382.19;5058526;28;20586;-67
2023/12/11 05:54:23;;;;;;;12.93;2.30;;;;;;;11.18;79.92;99377.03;5024430;28;20033;-68
2023/12/11 05:56:49;;;;;;;14.57;2.75;;;;;;;11.23;78.47;99362.19;5024745;28;20183;-68
2023/12/11 05:59:15;;;;;;;11.10;1.95;;;;;;;11.28;78.06;99370.63;5027884;28;20546;-67
2023/12/11 06:01:40;;;;;;;11.75;2.70;;;;;;;11.32;78.65;99360.13;5023082;28;21428;-67
2023/12/11 06:04:06;;;;;;;17.98;2.75;;;;;;;11.30;79.00;99397.31;5024620;28;20052;-67
2023/12/11 06:06:31;;;;;;;15.25;2.45;;;;;;;11.36;78.20;99379.00;5023800;28;20037;-67
2023/12/11 06:08:57;;;;;;;20.52;3.00;;;;;;;11.33;79.31;99402.38;5061596;28;20411;-67
2023/12/11 06:11:22;;;;;;;11.57;2.35;;;;;;;11.24;79.88;99424.22;5023569;28;20030;-67
2023/12/11 06:13:47;;;;;;;15.75;2.60;;;;;;;11.16;80.88;99436.53;5028564;28;20037;-67
2023/12/11 06:16:15;;;;;;;11.80;2.88;;;;;;;11.12;81.20;99450.47;5039375;28;20029;-67
2023/12/11 06:18:41;;;;;;;14.98;3.03;;;;;;;11.13;81.82;99436.63;5030317;28;20046;-67
2023/12/11 06:21:17;;;;;;;16.83;2.88;;;;;;;11.18;80.83;99429.59;5057009;28;20052;-66
2023/12/11 06:23:43;;;;;;;13.07;3.00;;;;;;;11.25;80.75;99454.34;5023601;28;20033;-68
2023/12/11 06:26:08;;;;;;;12.90;2.33;;;;;;;11.22;83.98;99494.97;5038340;28;20541;-67
2023/12/11 06:28:34;;;;;;;9.95;2.38;;;;;;;10.98;86.61;99508.69;5057972;28;20596;-67
2023/12/11 06:31:00;;;;;;;11.77;2.55;;;;;;;10.76;87.99;99519.66;5022076;28;20124;-68
2023/12/11 06:33:25;;;;;;;13.02;3.00;;;;;;;10.57;90.18;99522.78;5025411;28;20068;-67
2023/12/11 06:35:51;;;;;;;9.45;2.40;;;;;;;10.38;92.40;99498.38;5021133;28;20034;-67
2023/12/11 06:38:17;;;;;;;12.45;2.70;;;;;;;10.28;93.02;99490.03;5025316;28;20037;-68
2023/12/11 06:40:42;;;;;;;11.38;2.55;;;;;;;10.16;93.42;99487.78;5026113;28;20087;-67
2023/12/11 06:43:08;;;;;;;15.02;1.98;;;;;;;10.08;93.77;99477.66;5051652;28;20080;-67
2023/12/11 06:45:33;;;;;;;9.10;2.35;;;;;;;9.98;95.50;99480.50;5027121;28;20241;-68
2023/12/11 06:47:59;;;;;;;14.35;2.33;;;;;;;9.96;94.59;99487.47;5052792;28;20037;-67
2023/12/11 06:50:24;;;;;;;12.60;2.13;;;;;;;10.00;94.44;99476.19;5022209;28;20531;-67
2023/12/11 06:52:50;;;;;;;11.10;2.47;;;;;;;10.07;93.26;99475.09;5026791;28;20668;-67
2023/12/11 06:55:15;;;;;;;13.38;2.53;;;;;;;10.03;93.19;99478.69;5055830;28;20046;-67
2023/12/11 06:57:41;;;;;;;9.70;2.45;;;;;;;10.00;93.36;99483.91;5021012;28;20037;-67
2023/12/11 07:00:09;;;;;;;10.65;2.67;;;;;;;9.95;94.17;99488.34;5023607;28;20149;-67
2023/12/11 07:02:35;;;;;;;8.65;1.90;;;;;;;9.98;93.15;99480.50;5023882;28;20459;-67
2023/12/11 07:05:00;;;;;;;7.15;2.08;;;;;;;9.98;93.14;99489.09;5019107;28;20107;-67
2023/12/11 07:07:26;;;;;;;8.90;2.40;;;;;;;9.97;93.38;99487.41;5057008;28;20531;-67
2023/12/11 07:09:51;;;;;;;8.90;2.65;;;;;;;9.95;93.21;99478.88;5055750;28;20106;-67
2023/12/11 07:12:17;;;;;;;13.00;2.08;;;;;;;9.97;93.45;99491.75;5020794;28;20030;-67
2023/12/11 07:14:44;;;;;;;9.80;1.95;;;;;;;10.07;92.07;99480.28;5051034;28;20041;-67
2023/12/11 07:17:09;;;;;;;10.65;2.53;;;;;;;10.23;91.25;99471.22;4988433;28;20594;-67
2023/12/11 07:19:35;;;;;;;9.48;2.10;;;;;;;10.37;90.33;99476.00;5026943;28;20021;-67
2023/12/11 07:22:00;;;;;;;8.50;1.95;;;;;;;10.37;90.35;99482.03;5025287;28;20550;-68
2023/12/11 07:24:26;;;;;;;9.75;1.83;;;;;;;10.39;89.96;99484.53;5023891;28;20060;-67
2023/12/11 07:26:52;;;;;;;12.32;2.22;;;;;;;10.40;90.29;99481.94;5039133;28;20033;-67
2023/12/11 07:29:17;;;;;;;11.43;2.17;;;;;;;10.44;90.01;99486.13;5021928;28;20037;-67
2023/12/11 07:31:43;;;;;;;8.38;1.92;;;;;;;10.49;90.24;99489.44;5022578;28;20440;-66
2023/12/11 07:34:09;;;;;;;13.23;2.15;;;;;;;10.50;90.39;99487.69;5005815;28;20044;-65
2023/12/11 07:36:34;;;;;;;11.48;1.92;;;;;;;10.50;90.08;99501.47;5023587;28;20036;-66
2023/12/11 07:39:00;;;;;;;8.85;2.00;;;;;;;10.51;90.59;99497.97;5022049;28;20084;-66
2023/12/11 07:41:25;;;;;;;6.72;1.83;;;;;;;10.54;90.86;99500.47;5049828;28;20551;-66
2023/12/11 07:43:51;;;;;;;5.15;1.48;;;;;;;10.57;91.02;99502.97;5021044;28;20079;-67
2023/12/11 07:46:18;;;;;;;7.57;2.25;;;;;;;10.63;90.81;99504.53;5025201;28;20450;-66
2023/12/11 07:48:44;;;;;;;11.90;1.70;;;;;;;10.66;91.01;99507.03;5027772;28;20033;-66
2023/12/11 07:51:20;;;;;;;11.95;2.58;;;;;;;10.73;90.74;99490.47;5023420;28;20048;-66
2023/12/11 07:53:46;;;;;;;9.32;2.13;;;;;;;10.74;90.75;99508.50;5020691;28;20042;-66
2023/12/11 07:56:23;;;;;;;8.57;2.22;;;;;;;10.82;90.68;99507.44;5055249;28;20039;-65
2023/12/11 07:58:52;;;;;;;6.88;1.92;;;;;;;10.86;90.35;99511.63;5021493;28;20038;-67
2023/12/11 08:01:18;;;;;;;7.75;2.05;;;;;;;10.85;90.38;99509.91;5022114;28;20587;-67
2023/12/11 08:03:45;;;;;;;12.05;2.33;;;;;;;10.85;91.01;99520.25;5009403;28;20049;-67
2023/12/11 08:06:10;;;;;;;7.15;1.50;;;;;;;10.92;89.43;99517.44;5026153;28;20038;-66
2023/12/11 08:08:43;;;;;;;10.98;1.52;;;;;;;10.89;90.19;99520.13;5029253;28;20140;-67
2023/12/11 08:11:27;;;;;;;9.00;2.20;;;;;;;10.91;90.07;99526.09;5041809;28;20035;-66
2023/12/11 08:13:52;;;;;;;8.20;1.80;;;;;;;10.93;89.31;99526.03;5030073;28;20033;-67
2023/12/11 08:16:19;;;;;;;11.98;2.42;;;;;;;10.97;89.19;99513.00;5024370;28;20030;-67
2023/12/11 08:18:46;;;;;;;10.68;2.72;;;;;;;10.99;89.39;99526.72;5025776;28;20534;-68
2023/12/11 08:21:12;;;;;;;14.73;2.60;;;;;;;11.05;88.19;99505.84;5024254;28;20038;-67
2023/12/11 08:23:39;;;;;;;13.85;1.92;;;;;;;11.05;88.41;99520.50;5027281;28;20095;-67
2023/12/11 08:26:06;;;;;;;15.05;2.60;;;;;;;11.07;88.09;99508.41;4994379;28;20041;-68
2023/12/11 08:28:31;;;;;;;12.35;2.60;;;;;;;11.10;86.99;99508.31;5027025;28;20056;-67
2023/12/11 08:30:57;;;;;;;15.00;2.72;;;;;;;11.22;86.00;99494.97;5010053;28;20053;-67
2023/12/11 08:33:23;;;;;;;15.95;2.90;;;;;;;11.39;83.55;99486.69;5008667;28;20041;-66
2023/12/11 08:35:48;;;;;;;15.48;2.80;;;;;;;11.62;81.83;99451.44;5026678;28;20041;-66
2023/12/11 08:38:17;;;;;;;22.08;2.85;;;;;;;11.63;81.39;99439.34;5027897;28;20447;-66
2023/12/11 08:40:43;;;;;;;19.77;3.95;;;;;;;11.66;81.17;99453.00;5010863;28;20087;-67
2023/12/11 08:43:12;;;;;;;14.05;3.10;;;;;;;11.73;80.25;99443.31;5007009;28;20037;-67
2023/12/11 08:45:38;;;;;;;13.73;3.13;;;;;;;11.78;79.49;99434.47;5019790;28;20041;-67
2023/12/11 08:48:04;;;;;;;14.50;2.85;;;;;;;11.74;80.11;99456.22;5026286;28;20034;-67
2023/12/11 08:50:30;;;;;;;14.45;3.17;;;;;;;11.71;80.64;99469.25;5024612;28;20037;-66
2023/12/11 08:52:56;;;;;;;12.30;2.85;;;;;;;11.74;79.73;99465.72;5027867;28;20104;-67
2023/12/11 08:55:21;;;;;;;18.10;3.35;;;;;;;11.70;80.21;99477.06;5039449;28;20052;-66
2023/12/11 08:57:47;;;;;;;16.25;3.22;;;;;;;11.77;78.43;99450.94;5025884;28;20176;-67
2023/12/11 09:00:13;;;;;;;12.57;2.47;;;;;;;11.86;77.62;99444.59;5063491;28;20060;-66
2023/12/11 09:02:39;;;;;;;11.77;2.58;;;;;;;11.89;77.36;99440.16;5025091;28;20045;-66
2023/12/11 09:05:05;;;;;;;13.35;2.97;;;;;;;11.95;76.19;99439.09;5057279;28;20029;-66
2023/12/11 09:07:31;;;;;;;16.65;2.67;;;;;;;12.06;75.11;99411.06;5027346;28;20578;-66
2023/12/11 09:09:56;;;;;;;13.18;2.92;;;;;;;12.09;75.13;99426.50;5018427;28;20037;-66
2023/12/11 09:12:22;;;;;;;13.60;3.05;;;;;;;12.17;74.61;99440.00;5028172;28;20719;-66
2023/12/11 09:14:48;;;;;;;12.13;2.78;;;;;;;12.19;75.15;99427.03;5037050;28;20465;-67
2023/12/11 09:17:13;;;;;;;11.48;2.45;;;;;;;12.20;74.98;99413.13;5024306;28;20534;-67
2023/12/11 09:19:39;;;;;;;12.85;2.95;;;;;;;12.23;74.23;99424.25;5027186;28;20038;-67
2023/12/11 09:22:05;;;;;;;12.38;3.25;;;;;;;12.22;74.61;99420.00;5026317;28;20063;-66
2023/12/11 09:24:30;;;;;;;16.13;2.70;;;;;;;12.20;75.22;99452.84;5043985;28;20075;-67
2023/12/11 09:26:56;;;;;;;14.35;2.10;;;;;;;12.21;74.63;99436.41;5060456;28;20038;-67
2023/12/11 09:29:22;;;;;;;9.27;1.83;;;;;;;12.24;74.13;99436.31;5059696;28;20037;-66
2023/12/11 09:31:48;;;;;;;12.57;2.47;;;;;;;12.25;74.14;99448.38;5027143;28;20377;-66
2023/12/11 09:34:14;;;;;;;9.82;1.98;;;;;;;12.26;74.46;99464.72;5026034;28;20041;-66
2023/12/11 09:36:39;;;;;;;13.98;2.42;;;;;;;12.30;73.62;99458.56;5030184;28;20072;-67
2023/12/11 09:39:07;;;;;;;13.05;2.90;;;;;;;12.30;74.61;99480.13;5045390;28;20141;-66
2023/12/11 09:41:34;;;;;;;9.43;2.60;;;;;;;12.29;73.83;99460.28;5024771;28;20100;-66
2023/12/11 09:44:03;;;;;;;10.52;2.60;;;;;;;12.30;74.78;99493.09;5024817;28;20129;-67
2023/12/11 09:46:40;;;;;;;10.55;2.58;;;;;;;12.30;74.06;99477.53;5058520;28;20021;-66
2023/12/11 09:49:05;;;;;;;11.40;2.42;;;;;;;12.28;75.14;99507.00;5021301;28;20108;-66
2023/12/11 09:51:31;;;;;;;9.82;2.30;;;;;;;12.28;74.26;99513.03;5028559;28;20022;-69
2023/12/11 09:53:57;;;;;;;15.35;2.28;;;;;;;12.32;73.88;99486.09;5027668;28;20209;-66
2023/12/11 09:56:24;;;;;;;9.23;2.33;;;;;;;12.35;73.08;99480.81;5023265;28;20619;-66
2023/12/11 09:58:51;;;;;;;8.90;2.22;;;;;;;12.36;72.65;99468.69;5023079;28;20043;-66
2023/12/11 10:01:18;;;;;;;7.35;2.47;;;;;;;12.37;72.49;99468.66;5056355;28;20056;-66
2023/12/11 10:03:44;;;;;;;10.73;2.53;;;;;;;12.36;72.00;99474.72;5027179;28;20030;-66
2023/12/11 10:06:10;;;;;;;8.10;1.50;;;;;;;12.38;71.75;99475.50;5024922;28;20038;-66
2023/12/11 10:08:47;;;;;;;8.93;2.42;;;;;;;12.38;72.37;99478.09;5026159;28;20038;-66
2023/12/11 10:11:17;;;;;;;7.30;1.73;;;;;;;12.42;71.53;99478.84;5025317;28;20472;-66
2023/12/11 10:13:43;;;;;;;13.57;2.95;;;;;;;12.46;71.28;99463.09;5024833;28;21595;-67
2023/12/11 10:16:30;;;;;;;15.18;2.50;;;;;;;12.46;72.07;99498.56;5025553;28;20040;-67
2023/12/11 10:18:57;;;;;;;8.98;2.20;;;;;;;12.50;70.37;99457.81;5023431;28;20509;-66
2023/12/11 10:21:34;;;;;;;12.32;2.05;;;;;;;12.51;70.69;99464.69;5053885;28;20045;-66
2023/12/11 10:27:28;;;;;;;10.48;2.10;;;;;;;12.45;71.16;99507.25;5021467;28;20060;-67
2023/12/11 10:30:08;;;;;;;12.32;2.28;;;;;;;12.48;70.33;99476.03;5021629;28;20029;-67
2023/12/11 10:32:34;;;;;;;7.65;2.10;;;;;;;12.48;69.81;99455.28;5026634;28;20045;-66
2023/12/11 10:35:00;;;;;;;10.80;2.35;;;;;;;12.49;70.70;99487.25;5037391;28;20044;-67
2023/12/11 10:37:34;;;;;;;13.52;3.05;;;;;;;12.49;70.54;99480.31;5022692;28;20026;-67
2023/12/11 10:40:00;;;;;;;10.75;2.38;;;;;;;12.49;71.07;99495.03;5024108;28;20076;-67
2023/12/11 10:42:27;;;;;;;8.77;2.03;;;;;;;12.49;71.00;99492.44;5049987;28;20130;-67
2023/12/11 10:44:55;;;;;;;7.65;2.28;;;;;;;12.52;70.49;99497.50;5024089;28;20533;-67
2023/12/11 10:47:21;;;;;;;8.32;1.75;;;;;;;12.51;72.16;99527.75;5040562;28;20034;-67
2023/12/11 10:49:48;;;;;;;8.73;1.92;;;;;;;12.50;72.24;99531.22;5026701;28;21252;-67
2023/12/11 10:52:14;;;;;;;10.77;1.90;;;;;;;12.51;73.23;99548.50;5020113;28;20034;-67
2023/12/11 10:54:43;;;;;;;13.57;2.40;;;;;;;12.51;72.33;99530.34;5053711;28;20092;-67
2023/12/11 10:57:13;;;;;;;8.98;1.83;;;;;;;12.50;73.16;99551.97;5025395;28;20033;-67
2023/12/11 10:59:39;;;;;;;9.73;2.15;;;;;;;12.44;73.95;99575.50;5024567;28;20401;-67
2023/12/11 11:02:06;;;;;;;10.48;2.80;;;;;;;12.41;74.89;99585.97;5027093;28;20057;-68
2023/12/11 11:04:36;;;;;;;10.15;2.45;;;;;;;12.36;75.00;99595.66;5060182;28;20588;-68
2023/12/11 11:07:30;;;;;;;9.95;2.17;;;;;;;12.34;75.80;99603.50;5027297;28;20558;-67
2023/12/11 11:10:24;;;;;;;16.25;2.60;;;;;;;12.32;75.62;99600.09;5045029;28;20124;-66
2023/12/11 11:13:00;;;;;;;15.52;2.97;;;;;;;12.28;76.37;99610.63;5025876;28;20124;-66
2023/12/11 11:15:27;;;;;;;14.43;2.17;;;;;;;12.23;76.67;99628.06;5024908;28;20060;-66
2023/12/11 11:18:05;;;;;;;13.00;2.97;;;;;;;12.24;76.63;99632.34;5024480;28;20037;-67
2023/12/11 11:20:37;;;;;;;16.10;3.22;;;;;;;12.17;76.96;99636.03;5021159;28;20520;-67
2023/12/11 11:23:15;;;;;;;12.45;2.60;;;;;;;12.13;77.48;99645.66;5022116;28;20060;-67
2023/12/11 11:25:41;;;;;;;14.68;3.20;;;;;;;12.10;78.55;99670.81;5025865;28;20059;-67
2023/12/11 11:28:35;;;;;;;14.00;2.80;;;;;;;12.10;77.88;99655.28;5023801;28;20029;-66